Terminal Aerodrome Forecast
Issued by NWS

Current Version | Previous Version | Text Only | Print | Product List | Glossary Off
Versions: 1 2 3 4 5 6 7 8 9 10 11 12 13 14 15 16 17

000
FTUS41 KPBZ 161126
TAFHLG
TAF
KHLG 161126Z 1612/1712 12008KT P6SM OVC200
     FM161500 15010KT P6SM BKN050 OVC200
     FM161700 16008G18KT P6SM -RA SCT025 OVC035
     FM170300 19007KT P6SM -RA OVC025
     FM170600 20007KT P6SM -RA OVC012=

USA.gov is the U.S. government's official web portal to all federal, state and local government web resources and services.